• Join FlightAware (Why Join?)
  • Login
  • US Flag 
12:24PM EDT


 

Airport Tracker/Info


-or-


 

Live Flight TrackerFlight Track Log ✈ FFT917 ✈ 27-Apr-2013 ✈ KTTN - KMCO

Flight Track Log - Related Links

Times and Time Zones

All times are in EDT time to prevent confusion due to time zone crossing. See the FFT917 flight status page for this flight to view local times or setup timezone preferences in your user account.

Time Position Orientation Groundspeed Altitude Reporting Facility
EDT Latitude Longitude Course Direction KTS MPH feet Rate Location/Type
06:48AM 40.2667 -74.8333 217° Southwest 145 167 1,200  Level Philadelphia TRACON
06:49AM 40.2333 -74.8667 217° Southwest 195 224 2,900 1,800 Climbing Philadelphia TRACON
06:50AM 40.2036 -74.9044 224° Southwest 223 257 4,000 2,160 Climbing New York Center
06:51AM 40.1761 -74.9789 244° Southwest 267 307 6,400 1,560 Climbing New York Center
06:52AM 40.1328 -75.0794 241° Southwest 278 320 7,100 960 Climbing New York Center
06:53AM 40.1047 -75.1592 245° Southwest 278 320 8,400 1,500 Climbing New York Center
06:54AM 40.0639 -75.2514 240° Southwest 303 349 10,100 840 Climbing New York Center
06:55AM 40.0225 -75.3519 242° Southwest 308 354 10,100  Level New York Center
06:56AM 39.9808 -75.4547 242° Southwest 319 367 10,100 300 Level New York Center
06:57AM 39.9536 -75.5639 252° West 324 373 10,800 1,920 Climbing New York Center
06:58AM 39.9383 -75.6794 260° West 325 374 14,000 2,760 Climbing New York Center
06:59AM 39.8942 -75.7872 242° Southwest 337 388 16,500 2,280 Climbing New York Center
07:00AM 39.8256 -75.8797 226° Southwest 358 412 18,600 2,100 Climbing New York Center
07:01AM 39.7675 -75.9700 230° Southwest 358 412 20,700 2,160 Climbing New York Center
07:02AM 39.6919 -76.0722 226° Southwest 377 434 23,100 2,100 Climbing New York Center
07:03AM 39.6228 -76.1722 228° Southwest 382 440 25,000 1,800 Climbing New York Center
07:05AM 39.5089 -76.3983 237° Southwest 372 428 28,500 1,560 Climbing Washington Center
07:06AM 39.4456 -76.5186 236° Southwest 390 449 29,800 1,320 Climbing Washington Center
07:07AM 39.3903 -76.6497 241° Southwest 415 478 31,200 2,040 Climbing Washington Center
07:08AM 39.3411 -76.7642 241° Southwest 408 470 33,900 1,380 Climbing Washington Center
07:09AM 39.2650 -76.8675 226° Southwest 394 453 34,000  Climbing Washington Center
07:10AM 39.1786 -76.9597 220° Southwest 390 449 34,000 360 Level Washington Center
07:11AM 39.0900 -77.0492 218° Southwest 408 470 34,800 1,140 Climbing Washington Center
07:12AM 39.0014 -77.1408 219° Southwest 408 470 36,300 1,200 Climbing Washington Center
07:13AM 38.9169 -77.2297 219° Southwest 408 470 37,200 780 Climbing Washington Center
07:14AM 38.8236 -77.3289 220° Southwest 402 463 37,900 360 Climbing Washington Center
07:15AM 38.7350 -77.4172 218° Southwest 402 463 38,000  Climbing Washington Center
07:16AM 38.6439 -77.5108 219° Southwest 402 463 38,000  Level Washington Center
07:17AM 38.5589 -77.6014 220° Southwest 407 468 38,000  Level Washington Center
07:18AM 38.4719 -77.6894 218° Southwest 407 468 38,000  Level Washington Center
07:19AM 38.3869 -77.7769 219° Southwest 407 468 38,000  Level Washington Center
07:20AM 38.3019 -77.8619 218° Southwest 407 468 38,000  Level Washington Center
07:21AM 38.2147 -77.9489 218° Southwest 402 463 38,000  Level Washington Center
07:22AM 38.1317 -78.0361 220° Southwest 402 463 38,100  Climbing Washington Center
07:23AM 38.0444 -78.1231 218° Southwest 402 463 38,000 -60 Descending Washington Center
07:24AM 37.9656 -78.2047 219° Southwest 392 451 38,000  Level Washington Center
07:25AM 37.8761 -78.2883 216° Southwest 392 451 38,000  Level Washington Center
07:26AM 37.7886 -78.3719 217° Southwest 399 459 38,000  Level Washington Center
07:27AM 37.7075 -78.4478 216° Southwest 399 459 38,100  Climbing Washington Center
07:28AM 37.6181 -78.5308 216° Southwest 399 459 38,000 -60 Descending Washington Center
07:29AM 37.5303 -78.6139 217° Southwest 399 459 38,000  Level Washington Center
07:30AM 37.4406 -78.6967 216° Southwest 399 459 38,000  Level Washington Center
07:31AM 37.3531 -78.7794 217° Southwest 399 459 38,000  Level Washington Center
07:32AM 37.2544 -78.8692 216° Southwest 399 459 38,000  Level Washington Center
07:33AM 37.1647 -78.9514 216° Southwest 404 465 38,100  Climbing Washington Center
07:34AM 37.0744 -79.0386 218° Southwest 404 465 38,000 -60 Descending Washington Center
07:35AM 36.9825 -79.1150 214° Southwest 404 465 38,000  Level Washington Center
07:36AM 36.8864 -79.1911 212° Southwest 404 465 38,000  Level Washington Center
07:37AM 36.7903 -79.2644 211° Southwest 410 472 38,000  Level Washington Center
07:38AM 36.7028 -79.3328 212° Southwest 416 479 38,000  Level Washington Center
07:39AM 36.6042 -79.4108 212° Southwest 422 486 38,000  Level Washington Center
07:40AM 36.5058 -79.4861 212° Southwest 422 486 38,000  Level Washington Center
07:41AM 36.3089 -79.6356 211° Southwest 403 464 38,000  Level Atlanta Center
07:42AM 36.2072 -79.7131 212° Southwest 417 480 38,000  Level Atlanta Center
07:43AM 36.1181 -79.7822 212° Southwest 422 486 38,000  Level Atlanta Center
07:44AM 36.0142 -79.8544 209° Southwest 427 491 38,000  Level Atlanta Center
07:45AM 35.8947 -79.9017 198° South 433 498 38,000  Level Atlanta Center
07:46AM 35.7772 -79.9408 195° South 439 505 38,100  Climbing Atlanta Center
07:47AM 35.6494 -79.9881 197° South 439 505 38,000 -60 Descending Atlanta Center
07:48AM 35.5317 -80.0297 196° South 439 505 38,000  Level Atlanta Center
07:49AM 35.4183 -80.0733 197° South 434 499 38,000  Level Atlanta Center
07:50AM 35.3008 -80.1172 197° South 436 502 38,000  Level Atlanta Center
07:52AM 35.0842 -80.1911 196° South 418 481 38,000  Level Jacksonville Center
07:53AM 34.9600 -80.2356 196° South 418 481 38,000  Level Jacksonville Center
07:54AM 34.8503 -80.2769 197° South 418 481 38,000  Level Jacksonville Center
07:55AM 34.7386 -80.3183 197° South 418 481 38,000 -60 Level Jacksonville Center
07:56AM 34.6244 -80.3569 196° South 418 481 37,900  Descending Jacksonville Center
07:57AM 34.5086 -80.3931 194° South 418 481 38,000  Climbing Jacksonville Center
07:58AM 34.3925 -80.4367 197° South 428 493 38,000  Level Jacksonville Center
07:59AM 34.2828 -80.4750 196° South 423 487 38,000  Level Jacksonville Center
08:00AM 34.1728 -80.5156 197° South 418 481 38,000  Level Jacksonville Center
08:01AM 34.0608 -80.5539 196° South 418 481 38,000 -480 Level Jacksonville Center
08:02AM 33.9489 -80.5919 196° South 412 474 37,100 -960 Descending Jacksonville Center
08:03AM 33.8350 -80.6297 195° South 417 480 36,100 -600 Descending Jacksonville Center
08:04AM 33.7189 -80.6728 197° South 422 486 36,000 -60 Descending Jacksonville Center
08:05AM 33.6089 -80.7106 196° South 443 510 36,000  Level Jacksonville Center
08:06AM 33.4906 -80.7483 195° South 443 510 36,000  Level Jacksonville Center
08:07AM 33.3744 -80.7883 196° South 443 510 36,000  Level Jacksonville Center
08:08AM 33.2561 -80.8308 197° South 443 510 36,000  Level Jacksonville Center
08:09AM 33.1378 -80.8683 195° South 443 510 36,000  Level Jacksonville Center
08:10AM 33.0214 -80.9081 196° South 443 510 36,000  Level Jacksonville Center
08:11AM 32.9053 -80.9503 197° South 438 504 36,000  Level Jacksonville Center
08:12AM 32.7889 -80.9872 195° South 438 504 36,000  Level Jacksonville Center
08:13AM 32.6706 -81.0294 197° South 438 504 36,000  Level Jacksonville Center
08:14AM 32.5417 -81.0714 195° South 433 498 36,000  Level Jacksonville Center
08:15AM 32.4211 -81.1108 195° South 438 504 36,000  Level Jacksonville Center
08:16AM 32.3131 -81.1472 196° South 451 519 36,000  Level Jacksonville Center
08:17AM 32.1947 -81.1839 195° South 451 519 36,000  Level Jacksonville Center
08:18AM 32.0697 -81.1986 186° South 451 519 36,000  Level Jacksonville Center
08:19AM 31.9400 -81.1961 179° South 456 525 36,000  Level Jacksonville Center
08:20AM 31.8022 -81.1886 177° South 456 525 36,000  Level Jacksonville Center
08:21AM 31.6894 -81.1858 179° South 456 525 36,000  Level Jacksonville Center
08:22AM 31.5536 -81.1811 178° South 451 519 36,000  Level Jacksonville Center
08:23AM 31.4264 -81.1761 178° South 463 533 36,100  Climbing Jacksonville Center
08:24AM 31.3114 -81.1783 181° South 463 533 36,000 -60 Descending Jacksonville Center
08:25AM 31.1839 -81.1708 177° South 463 533 36,000 -60 Level Jacksonville Center
08:26AM 31.0567 -81.1683 179° South 458 527 35,900 -300 Descending Jacksonville Center
08:27AM 30.9272 -81.1658 179° South 458 527 35,400 -540 Descending Jacksonville Center
08:28AM 30.7956 -81.1586 177° South 463 533 34,900 -540 Descending Jacksonville Center
08:29AM 30.6639 -81.1536 178° South 468 539 34,400 -480 Descending Jacksonville Center
08:30AM 30.5344 -81.1514 179° South 468 539 34,000 -240 Descending Jacksonville Center
08:31AM 30.4008 -81.1464 178° South 468 539 34,000  Level Jacksonville Center
08:32AM 30.2692 -81.1417 178° South 479 551 34,000 -120 Level Jacksonville Center
08:33AM 30.1375 -81.1392 179° South 479 551 33,800 -1,200 Descending Jacksonville Center
08:34AM 30.0017 -81.1344 178° South 479 551 31,600 -2,700 Descending Jacksonville Center
08:35AM 29.8703 -81.1322 179° South 474 545 28,500 -2,940 Descending Jacksonville Center
08:36AM 29.7322 -81.1250 177° South 474 545 25,800 -2,700 Descending Jacksonville Center
08:37AM 29.6072 -81.1250 180° South 463 533 23,200 -2,580 Descending Jacksonville Center
08:38AM 29.4881 -81.1222 179° South 451 519 20,700 -2,400 Descending Jacksonville Center
08:39AM 29.3711 -81.1150 177° South 438 504 18,500 -2,100 Descending Jacksonville Center
08:40AM 29.2542 -81.1100 178° South 432 497 16,600 -2,040 Descending Jacksonville Center
08:41AM 29.1411 -81.1000 176° South 418 481 14,500 -2,340 Descending Jacksonville Center
08:42AM 29.0347 -81.0925 176° South 401 461 12,000 -1,320 Descending Jacksonville Center
08:43AM 28.9322 -81.0800 174° South 390 449 11,900 -540 Descending Jacksonville Center
08:44AM 28.8447 -81.0958 189° South 355 409 11,000 -1,320 Descending Jacksonville Center
08:45AM 28.8000 -81.1000 185° South 305 351 9,900 -1,320 Descending Orlando TRACON
08:46AM 28.7167 -81.1167 190° South 305 351 9,000 -540 Descending Orlando TRACON
08:47AM 28.6333 -81.1333 190° South 306 352 8,900 -540 Descending Orlando TRACON
08:48AM 28.5500 -81.1500 190° South 303 349 8,000 -900 Descending Orlando TRACON
08:49AM 28.4667 -81.1667 190° South 273 314 7,200 -840 Descending Orlando TRACON
08:50AM 28.4000 -81.1833 192° South 250 288 6,400 -1,020 Descending Orlando TRACON
08:51AM 28.3333 -81.1833 180° South 225 259 5,200 -1,560 Descending Orlando TRACON
08:52AM 28.2833 -81.2000 196° South 232 267 3,300 -1,620 Descending Orlando TRACON
08:53AM 28.3000 -81.2667 286° West 207 238 2,000 -960 Descending Orlando TRACON
08:54AM 28.3500 -81.3000 330° Northwest 165 190 1,400 -720 Descending Orlando TRACON
08:55AM 28.3833 -81.3000 360° North 128 147 600 -840 Descending Orlando TRACON
08:57AM 28.4167 -81.3000 336° Northwest  Level FlightAware Approximate